Česky Dansk Deutsch English Español Suomi Français Magyar Italiano Nederlands norsk Polski Português svenska Türkçe

 

Het Weer

Marte Civ / Mil (Brazilië)

17:00, 28 juli 2016 (GMT)

NWNNE
WE
SWSSE
Home            
Marte Civ / Mil Sao Paulo/Congonhas Aeroporto Guarulhos Civ / Mil Santos Aeroporto Campinas Aeroporto Sao Jose Dos Campo Guaratingueta Pirassununga Pocos De Caldas Sao Carlos Resende Bauru Leite Lopes / Ribeir Paranagua Rio De Janeiro-Santa Cruz Ab Rio / Jacarepagua Curitiba Aeroporto Curitiba Afonsos Aeroporto Galeao Rio De Janeiro Aeroporto Barbacena Juiz De Fora

Om een weerknop op uw website of weblog te plaatsen, copieer onderstaande code en plak die in uw pagina. In het eerste vakje staat HTML-code, in het tweede vakje UBB-code.


Add to Google

Details

Wind speed:4 bf, 12 kn, 6.2 m/s, 13.8 miles/h, 22.2 km/h
Wind direction:ESE, 110°
Visibility:Greater than 10000 m, 10 km, 32800 ft, 6.2 miles
Clouds:CAVOC
Temperature:19°C, 66°F
Dew-point:9°C, 48°F
Atmospheric pressure:1023 hPa, 767.3 mmHg, 30.21 inHg, 1.010 atm
Relative humidity:52.2 %
METAR:SBMT 281700Z 11012KT CAVOK 19/09 Q1023

Snelkoppelingen

Actuele weersinformatie van de hele wereld. Voeg locaties toe met het plus (+) symbool. Deze snelkoppelingen kunnen worden toegevoegd aan Google.

Lid van de Technetium groep

website free tracking
StatCounter NetStat W3C Validator

24-10-2020 02:34:07
astro.technetium.be money.technetium.be phote.technetium.be tafeltennistafel.technetium.be www.ligfiets.net